sensor_id;sensor_type;location;lat;lon;timestamp;P1;durP1;ratioP1;P2;durP2;ratioP2
28068;SDS011;15382;47.578;8.086;2022-09-09T00:04:32;7.43;;;1.17;;
28068;SDS011;15382;47.578;8.086;2022-09-09T00:24:52;3.35;;;1.67;;
28068;SDS011;15382;47.578;8.086;2022-09-09T00:35:13;3.58;;;0.85;;
28068;SDS011;15382;47.578;8.086;2022-09-09T00:45:37;3.70;;;1.08;;
28068;SDS011;15382;47.578;8.086;2022-09-09T00:56:11;1.77;;;0.75;;
28068;SDS011;15382;47.578;8.086;2022-09-09T01:06:28;8.38;;;2.10;;
28068;SDS011;15382;47.578;8.086;2022-09-09T01:16:32;2.47;;;1.00;;
28068;SDS011;15382;47.578;8.086;2022-09-09T01:26:37;2.58;;;1.20;;
28068;SDS011;15382;47.578;8.086;2022-09-09T01:36:53;7.57;;;1.40;;
28068;SDS011;15382;47.578;8.086;2022-09-09T01:47:07;3.00;;;1.20;;
28068;SDS011;15382;47.578;8.086;2022-09-09T01:57:21;1.45;;;0.90;;
28068;SDS011;15382;47.578;8.086;2022-09-09T02:18:11;3.40;;;1.50;;
28068;SDS011;15382;47.578;8.086;2022-09-09T02:28:18;6.93;;;1.63;;
28068;SDS011;15382;47.578;8.086;2022-09-09T02:38:21;6.00;;;1.70;;
28068;SDS011;15382;47.578;8.086;2022-09-09T02:48:47;3.25;;;2.20;;
28068;SDS011;15382;47.578;8.086;2022-09-09T02:59:09;4.13;;;1.95;;
28068;SDS011;15382;47.578;8.086;2022-09-09T03:09:12;10.50;;;2.55;;
28068;SDS011;15382;47.578;8.086;2022-09-09T03:19:13;8.77;;;2.20;;
28068;SDS011;15382;47.578;8.086;2022-09-09T03:29:15;4.32;;;2.25;;
28068;SDS011;15382;47.578;8.086;2022-09-09T03:39:17;2.65;;;1.42;;
28068;SDS011;15382;47.578;8.086;2022-09-09T03:49:18;9.27;;;2.20;;
28068;SDS011;15382;47.578;8.086;2022-09-09T03:59:21;6.88;;;1.77;;
28068;SDS011;15382;47.578;8.086;2022-09-09T04:09:24;5.00;;;2.55;;
28068;SDS011;15382;47.578;8.086;2022-09-09T04:19:25;8.52;;;2.70;;
28068;SDS011;15382;47.578;8.086;2022-09-09T04:29:27;9.48;;;3.53;;
28068;SDS011;15382;47.578;8.086;2022-09-09T04:39:27;6.27;;;2.70;;
28068;SDS011;15382;47.578;8.086;2022-09-09T04:49:29;7.65;;;2.92;;
28068;SDS011;15382;47.578;8.086;2022-09-09T04:59:31;16.92;;;4.47;;
28068;SDS011;15382;47.578;8.086;2022-09-09T05:09:34;5.30;;;2.78;;
28068;SDS011;15382;47.578;8.086;2022-09-09T05:19:35;8.30;;;2.60;;
28068;SDS011;15382;47.578;8.086;2022-09-09T05:29:37;4.10;;;2.08;;
28068;SDS011;15382;47.578;8.086;2022-09-09T05:39:40;7.43;;;2.50;;
28068;SDS011;15382;47.578;8.086;2022-09-09T05:49:41;15.87;;;3.20;;
28068;SDS011;15382;47.578;8.086;2022-09-09T05:59:41;8.67;;;2.20;;
28068;SDS011;15382;47.578;8.086;2022-09-09T06:09:42;4.60;;;2.00;;
28068;SDS011;15382;47.578;8.086;2022-09-09T06:19:43;4.87;;;2.17;;
28068;SDS011;15382;47.578;8.086;2022-09-09T06:29:44;6.50;;;2.60;;
28068;SDS011;15382;47.578;8.086;2022-09-09T06:39:45;8.80;;;4.57;;
28068;SDS011;15382;47.578;8.086;2022-09-09T06:49:46;11.27;;;6.87;;
28068;SDS011;15382;47.578;8.086;2022-09-09T06:59:47;15.43;;;8.40;;
28068;SDS011;15382;47.578;8.086;2022-09-09T07:09:48;12.90;;;7.60;;
28068;SDS011;15382;47.578;8.086;2022-09-09T07:19:49;11.15;;;6.90;;
28068;SDS011;15382;47.578;8.086;2022-09-09T07:39:54;8.68;;;4.53;;
28068;SDS011;15382;47.578;8.086;2022-09-09T07:49:56;8.82;;;4.20;;
28068;SDS011;15382;47.578;8.086;2022-09-09T08:00:04;5.07;;;2.80;;
28068;SDS011;15382;47.578;8.086;2022-09-09T08:10:12;3.65;;;2.78;;
28068;SDS011;15382;47.578;8.086;2022-09-09T08:20:15;8.27;;;2.67;;
28068;SDS011;15382;47.578;8.086;2022-09-09T08:30:16;7.40;;;2.13;;
28068;SDS011;15382;47.578;8.086;2022-09-09T08:40:18;3.50;;;2.23;;
28068;SDS011;15382;47.578;8.086;2022-09-09T08:50:28;3.58;;;1.73;;
28068;SDS011;15382;47.578;8.086;2022-09-09T09:00:41;8.88;;;1.20;;
28068;SDS011;15382;47.578;8.086;2022-09-09T09:10:59;4.10;;;0.85;;
28068;SDS011;15382;47.578;8.086;2022-09-09T09:21:04;5.78;;;0.85;;
28068;SDS011;15382;47.578;8.086;2022-09-09T09:31:16;4.03;;;0.95;;
28068;SDS011;15382;47.578;8.086;2022-09-09T09:51:43;9.70;;;0.98;;
28068;SDS011;15382;47.578;8.086;2022-09-09T10:01:44;4.85;;;1.08;;
28068;SDS011;15382;47.578;8.086;2022-09-09T10:22:08;4.38;;;0.60;;
28068;SDS011;15382;47.578;8.086;2022-09-09T10:42:52;3.13;;;0.93;;
28068;SDS011;15382;47.578;8.086;2022-09-09T11:03:31;1.58;;;0.40;;
28068;SDS011;15382;47.578;8.086;2022-09-09T11:24:02;5.57;;;0.50;;
28068;SDS011;15382;47.578;8.086;2022-09-09T11:34:23;0.83;;;0.40;;
28068;SDS011;15382;47.578;8.086;2022-09-09T11:44:49;1.52;;;0.43;;
28068;SDS011;15382;47.578;8.086;2022-09-09T11:54:51;2.35;;;0.50;;
28068;SDS011;15382;47.578;8.086;2022-09-09T12:15:02;0.57;;;0.22;;
28068;SDS011;15382;47.578;8.086;2022-09-09T12:35:25;4.75;;;0.50;;
28068;SDS011;15382;47.578;8.086;2022-09-09T12:45:29;2.97;;;0.60;;
28068;SDS011;15382;47.578;8.086;2022-09-09T12:55:34;1.65;;;0.47;;
28068;SDS011;15382;47.578;8.086;2022-09-09T13:05:38;4.38;;;0.50;;
28068;SDS011;15382;47.578;8.086;2022-09-09T13:15:39;3.88;;;0.43;;
28068;SDS011;15382;47.578;8.086;2022-09-09T13:25:40;1.52;;;0.40;;
28068;SDS011;15382;47.578;8.086;2022-09-09T13:35:57;3.77;;;0.60;;
28068;SDS011;15382;47.578;8.086;2022-09-09T13:46:05;3.67;;;0.32;;
28068;SDS011;15382;47.578;8.086;2022-09-09T14:06:38;0.80;;;0.28;;
28068;SDS011;15382;47.578;8.086;2022-09-09T14:16:40;3.00;;;0.20;;
28068;SDS011;15382;47.578;8.086;2022-09-09T14:26:41;3.67;;;0.40;;
28068;SDS011;15382;47.578;8.086;2022-09-09T14:36:41;1.27;;;0.40;;
28068;SDS011;15382;47.578;8.086;2022-09-09T14:46:42;5.57;;;0.30;;
28068;SDS011;15382;47.578;8.086;2022-09-09T14:56:43;5.00;;;0.40;;
28068;SDS011;15382;47.578;8.086;2022-09-09T15:06:44;1.30;;;0.27;;
28068;SDS011;15382;47.578;8.086;2022-09-09T15:16:48;2.60;;;0.25;;
28068;SDS011;15382;47.578;8.086;2022-09-09T15:26:48;1.03;;;0.20;;
28068;SDS011;15382;47.578;8.086;2022-09-09T15:36:49;2.17;;;0.40;;
28068;SDS011;15382;47.578;8.086;2022-09-09T15:46:51;2.13;;;0.33;;
28068;SDS011;15382;47.578;8.086;2022-09-09T15:56:56;0.88;;;0.20;;
28068;SDS011;15382;47.578;8.086;2022-09-09T16:07:01;1.83;;;0.40;;
28068;SDS011;15382;47.578;8.086;2022-09-09T16:17:04;0.60;;;0.30;;
28068;SDS011;15382;47.578;8.086;2022-09-09T16:27:06;2.25;;;1.45;;
28068;SDS011;15382;47.578;8.086;2022-09-09T16:37:06;3.53;;;0.40;;
28068;SDS011;15382;47.578;8.086;2022-09-09T16:47:07;3.40;;;0.40;;
28068;SDS011;15382;47.578;8.086;2022-09-09T16:57:08;2.70;;;0.30;;
28068;SDS011;15382;47.578;8.086;2022-09-09T17:07:09;2.97;;;0.80;;
28068;SDS011;15382;47.578;8.086;2022-09-09T17:17:10;0.88;;;0.15;;
28068;SDS011;15382;47.578;8.086;2022-09-09T17:27:11;3.53;;;0.30;;
28068;SDS011;15382;47.578;8.086;2022-09-09T17:47:13;0.65;;;0.32;;
28068;SDS011;15382;47.578;8.086;2022-09-09T17:57:14;2.57;;;0.20;;
28068;SDS011;15382;47.578;8.086;2022-09-09T18:07:17;2.47;;;0.30;;
28068;SDS011;15382;47.578;8.086;2022-09-09T18:17:18;1.17;;;0.30;;
28068;SDS011;15382;47.578;8.086;2022-09-09T18:27:19;0.33;;;0.10;;
28068;SDS011;15382;47.578;8.086;2022-09-09T18:37:19;0.60;;;0.20;;
28068;SDS011;15382;47.578;8.086;2022-09-09T18:47:20;0.50;;;0.30;;
28068;SDS011;15382;47.578;8.086;2022-09-09T18:57:23;1.90;;;0.30;;
28068;SDS011;15382;47.578;8.086;2022-09-09T19:07:24;2.70;;;0.37;;
28068;SDS011;15382;47.578;8.086;2022-09-09T19:17:25;5.97;;;0.53;;
28068;SDS011;15382;47.578;8.086;2022-09-09T19:27:27;1.35;;;0.35;;
28068;SDS011;15382;47.578;8.086;2022-09-09T19:37:29;1.67;;;0.30;;
28068;SDS011;15382;47.578;8.086;2022-09-09T19:47:31;1.50;;;0.43;;
28068;SDS011;15382;47.578;8.086;2022-09-09T19:57:32;6.73;;;0.50;;
28068;SDS011;15382;47.578;8.086;2022-09-09T20:07:33;2.00;;;0.40;;
28068;SDS011;15382;47.578;8.086;2022-09-09T20:17:34;1.03;;;0.57;;
28068;SDS011;15382;47.578;8.086;2022-09-09T20:27:34;2.03;;;0.53;;
28068;SDS011;15382;47.578;8.086;2022-09-09T20:37:35;2.57;;;0.80;;
28068;SDS011;15382;47.578;8.086;2022-09-09T20:47:38;1.50;;;0.50;;
28068;SDS011;15382;47.578;8.086;2022-09-09T20:57:39;1.23;;;0.60;;
28068;SDS011;15382;47.578;8.086;2022-09-09T21:07:40;0.97;;;0.50;;
28068;SDS011;15382;47.578;8.086;2022-09-09T21:17:41;3.77;;;0.90;;
28068;SDS011;15382;47.578;8.086;2022-09-09T21:27:42;0.97;;;0.40;;
28068;SDS011;15382;47.578;8.086;2022-09-09T21:37:43;1.80;;;0.70;;
28068;SDS011;15382;47.578;8.086;2022-09-09T21:47:44;4.80;;;0.67;;
28068;SDS011;15382;47.578;8.086;2022-09-09T21:57:50;7.85;;;1.15;;
28068;SDS011;15382;47.578;8.086;2022-09-09T22:07:51;5.00;;;0.80;;
28068;SDS011;15382;47.578;8.086;2022-09-09T22:27:54;2.38;;;0.95;;
28068;SDS011;15382;47.578;8.086;2022-09-09T22:37:55;1.10;;;0.73;;
28068;SDS011;15382;47.578;8.086;2022-09-09T22:47:57;3.42;;;0.80;;
28068;SDS011;15382;47.578;8.086;2022-09-09T22:57:59;1.77;;;0.55;;
28068;SDS011;15382;47.578;8.086;2022-09-09T23:08:00;3.70;;;0.80;;
28068;SDS011;15382;47.578;8.086;2022-09-09T23:18:01;5.73;;;0.70;;
28068;SDS011;15382;47.578;8.086;2022-09-09T23:28:02;2.70;;;0.67;;
28068;SDS011;15382;47.578;8.086;2022-09-09T23:38:03;1.43;;;0.57;;
28068;SDS011;15382;47.578;8.086;2022-09-09T23:48:04;6.70;;;1.73;;
28068;SDS011;15382;47.578;8.086;2022-09-09T23:58:05;2.60;;;0.77;;
